Norwood, CO

9:28 PM MDT on May 22, 2015 (GMT -0600)
Ed Joe Canyon | | Change Station
CLOSE
Current Station
Personal Weather Station
Location: Norwood, CO
Elevation: 7592 ft
Nearby Weather Stations

Elev 7592 ft 38.08 °N, 108.28 °W | Updated 4 minutes ago

Partly Cloudy
Partly Cloudy
40.1 °F
Feels Like 40 °F
N
2.0
Wind Variable Wind from NE
Gusts 10.0 mph

Today
High -- | Low -- °F
--% Chance of Precip.
Yesterday
High -- | Low -- °F
Precip. -- in
5:57 AM 8:22 PM
Waxing Crescent, 26% visible
Pressure 29.97 in
Visibility 10.0 miles
Clouds Clear
Windchill 40 °F
Dew Point 37 °F
Humidity 90%
Rainfall 0.08 in
Snow Depth Not available.
UV 0 out of 12
Pollen 8.30 out of 12
Air Quality Not available.
Flu Activity Sporadic
METAR KAIB 230315Z AUTO 11010KT 10SM CLR 10/03 A2997 RMK AO2

More Conditions Fewer Conditions

Pressure 29.97 in
Visibility 10.0 miles
Clouds Clear
Windchill 40 °F
Dew Point 37 °F
Humidity 90%
Rainfall 0.08 in
Snow Depth Not available.
UV 0 out of 12
Pollen 8.30 out of 12
Air Quality Not available.
Flu Activity Sporadic
METAR KAIB 230315Z AUTO 11010KT 10SM CLR 10/03 A2997 RMK AO2

More Conditions Fewer Conditions

Nowcast | as of 7:25 PM MDT on May 22, 2015

At 720 PM MDT...Doppler radar indicated a line of showers and thunderstorms extending from just east of Moab to Grand Junction then curving southeast to Delta and Montrose. This line will move north at 40 mph. Through 815 PM MDT...the storms in this line will produce frequent lightning...occasional heavy rain showers and a few storms will produce hail up to one half inch diameter. Locations impacted include... Grand Junction...Castle Valley... Fruita...Delta... Palisade...Cedaredge...Parachute...Hotchkiss... Collbran...De Beque...Battlement Mesa...Whitewater...The Redlands... Cameo and Grand Mesa.

×

10-Day Weather Forecast

Almanac

Astronomy

May. 22, 2015 Rise Set
Actual Time
Civil Twilight
Nautical Twilight
Astronomical Twilight
Moon
Length of Visible Light
Length of Day
Tomorrow will be .
, % of the Moon is Illuminated

Today's Extremes

State Highs State Lows

Community

WunderPhotos

Upload Photos

1,823,381 photos uploaded!

WunderBlogs® & News

Nearby

Air Quality

  Air Quality AQ Index Pollutant
Not available.

Snow Depth

Station Depth Elevation

Earthquake Activity

City Distance Mag. Time & Date
Minimum magnitude displayed is 2.5.

Coastal Water Temperatures

Place Temperature

Stations

Nearby Weather Stations

Station Location Temp. Windchill Dew Point Humidity Wind Precip. Elev Updated Type